DAL1194 KLAX-KSLC
Flight info
| Callsign | DAL1194 |
|---|---|
| Flight time | 1h 23m |
| Altitude | 35000 |
| Route | N0444F350 ORCKA5 LAS Q70 BLIPP Q842 WINEN DCT MLF PITTT2 |
| Aircraft | A321/M-SDE3FGHIRWY/LB1 |
Departure
| Time | 2026-04-26 14:48 |
|---|---|
| Airport | Los Angeles International Airport (KLAX) |
Arrival
| Time | 2026-04-26 16:12 |
|---|---|
| Airport | Salt Lake City International Airport (KSLC) |
| Time | Latitude | Longitude | Altitude | Speed | Heading |
|---|---|---|---|---|---|
| 2026-04-26 14:02 | 33.94671 | -118.40815 | 142 ft | 0 kts | 110° |
| 2026-04-26 14:37 | 33.94674 | -118.40825 | 142 ft | 2 kts | 108° |
| 2026-04-26 14:38 | 33.94678 | -118.40846 | 142 ft | 3 kts | 93° |
| 2026-04-26 14:38 | 33.94676 | -118.40870 | 142 ft | 3 kts | 77° |
| 2026-04-26 14:38 | 33.94669 | -118.40893 | 142 ft | 3 kts | 60° |
| 2026-04-26 14:38 | 33.94661 | -118.40907 | 142 ft | 3 kts | 50° |
| 2026-04-26 14:39 | 33.94648 | -118.40923 | 142 ft | 0 kts | 40° |
| 2026-04-26 14:41 | 33.94650 | -118.40920 | 142 ft | 1 kts | 40° |
| 2026-04-26 14:41 | 33.94664 | -118.40914 | 142 ft | 3 kts | 7° |
| 2026-04-26 14:41 | 33.94693 | -118.40912 | 142 ft | 5 kts | 4° |
| 2026-04-26 14:42 | 33.94725 | -118.40909 | 142 ft | 3 kts | 5° |
| 2026-04-26 14:42 | 33.94756 | -118.40904 | 142 ft | 5 kts | 1° |
| 2026-04-26 14:42 | 33.94802 | -118.40910 | 142 ft | 8 kts | 353° |
| 2026-04-26 14:42 | 33.94835 | -118.40863 | 142 ft | 10 kts | 83° |
| 2026-04-26 14:43 | 33.94843 | -118.40771 | 142 ft | 12 kts | 84° |
| 2026-04-26 14:43 | 33.94853 | -118.40678 | 142 ft | 11 kts | 83° |
| 2026-04-26 14:43 | 33.94860 | -118.40617 | 142 ft | 11 kts | 81° |
| 2026-04-26 14:43 | 33.94874 | -118.40497 | 142 ft | 11 kts | 82° |
| 2026-04-26 14:44 | 33.94880 | -118.40437 | 142 ft | 11 kts | 83° |
| 2026-04-26 14:44 | 33.94892 | -118.40314 | 142 ft | 11 kts | 82° |
| 2026-04-26 14:44 | 33.94900 | -118.40249 | 142 ft | 12 kts | 81° |
| 2026-04-26 14:44 | 33.94911 | -118.40143 | 142 ft | 13 kts | 83° |
| 2026-04-26 14:45 | 33.94923 | -118.40014 | 142 ft | 12 kts | 83° |
| 2026-04-26 14:45 | 33.94926 | -118.39992 | 142 ft | 7 kts | 81° |
| 2026-04-26 14:45 | 33.94955 | -118.39921 | 142 ft | 8 kts | 46° |
| 2026-04-26 14:45 | 33.95017 | -118.39916 | 142 ft | 4 kts | 353° |
| 2026-04-26 14:46 | 33.95036 | -118.39921 | 142 ft | 4 kts | 338° |
| 2026-04-26 14:46 | 33.95041 | -118.39943 | 142 ft | 3 kts | 266° |
| 2026-04-26 14:46 | 33.95040 | -118.39946 | 142 ft | 0 kts | 265° |
| 2026-04-26 14:47 | 33.95030 | -118.40067 | 143 ft | 50 kts | 263° |
| 2026-04-26 14:47 | 33.94954 | -118.40806 | 143 ft | 125 kts | 263° |
| 2026-04-26 14:48 | 33.94826 | -118.42038 | 418 ft | 157 kts | 264° |
| 2026-04-26 14:48 | 33.94692 | -118.43338 | 1115 ft | 161 kts | 265° |
| 2026-04-26 14:48 | 33.94544 | -118.44735 | 1505 ft | 175 kts | 265° |
| 2026-04-26 14:48 | 33.94395 | -118.46261 | 1882 ft | 191 kts | 265° |
| 2026-04-26 14:49 | 33.94229 | -118.47924 | 2216 ft | 211 kts | 264° |
| 2026-04-26 14:49 | 33.94044 | -118.49769 | 2633 ft | 232 kts | 265° |
| 2026-04-26 14:49 | 33.93849 | -118.51745 | 3292 ft | 242 kts | 265° |
| 2026-04-26 14:49 | 33.93658 | -118.53773 | 4123 ft | 245 kts | 265° |
| 2026-04-26 14:50 | 33.93469 | -118.55824 | 4949 ft | 248 kts | 265° |
| 2026-04-26 14:50 | 33.93281 | -118.57903 | 5772 ft | 251 kts | 265° |
| 2026-04-26 14:50 | 33.93063 | -118.59997 | 6591 ft | 254 kts | 259° |
| 2026-04-26 14:50 | 33.92341 | -118.61919 | 7378 ft | 261 kts | 236° |
| 2026-04-26 14:51 | 33.90945 | -118.63358 | 8184 ft | 271 kts | 212° |
| 2026-04-26 14:51 | 33.89105 | -118.64000 | 8977 ft | 283 kts | 189° |
| 2026-04-26 14:51 | 33.87121 | -118.63787 | 9772 ft | 292 kts | 173° |
| 2026-04-26 14:51 | 33.85215 | -118.62845 | 10518 ft | 305 kts | 150° |
| 2026-04-26 14:52 | 33.83749 | -118.60943 | 11169 ft | 320 kts | 122° |
| 2026-04-26 14:52 | 33.83103 | -118.58355 | 11793 ft | 330 kts | 93° |
| 2026-04-26 14:52 | 33.83458 | -118.55630 | 12409 ft | 333 kts | 64° |
| 2026-04-26 14:52 | 33.84747 | -118.53368 | 13021 ft | 327 kts | 39° |
| 2026-04-26 14:53 | 33.86458 | -118.51551 | 13645 ft | 330 kts | 34° |
| 2026-04-26 14:53 | 33.88250 | -118.49711 | 14003 ft | 346 kts | 36° |
| 2026-04-26 14:53 | 33.90051 | -118.47681 | 14213 ft | 367 kts | 39° |
| 2026-04-26 14:53 | 33.91875 | -118.45409 | 14431 ft | 385 kts | 42° |
| 2026-04-26 14:54 | 33.93595 | -118.42906 | 14830 ft | 398 kts | 51° |
| 2026-04-26 14:54 | 33.95164 | -118.40134 | 15435 ft | 402 kts | 52° |
| 2026-04-26 14:54 | 33.96715 | -118.37297 | 16012 ft | 406 kts | 53° |
| 2026-04-26 14:54 | 33.98277 | -118.34456 | 16572 ft | 409 kts | 52° |
| 2026-04-26 14:55 | 33.99885 | -118.31592 | 17125 ft | 413 kts | 52° |
| 2026-04-26 14:55 | 34.01520 | -118.28731 | 17663 ft | 416 kts | 51° |
| 2026-04-26 14:55 | 34.03176 | -118.25845 | 18179 ft | 420 kts | 51° |
| 2026-04-26 14:55 | 34.04836 | -118.22938 | 18682 ft | 424 kts | 52° |
| 2026-04-26 14:56 | 34.06512 | -118.19979 | 19118 ft | 430 kts | 52° |
| 2026-04-26 14:56 | 34.08206 | -118.16974 | 19488 ft | 437 kts | 52° |
| 2026-04-26 14:56 | 34.09935 | -118.13906 | 19845 ft | 444 kts | 52° |
| 2026-04-26 14:56 | 34.11662 | -118.10847 | 20264 ft | 449 kts | 52° |
| 2026-04-26 14:57 | 34.13434 | -118.07708 | 20673 ft | 454 kts | 52° |
| 2026-04-26 14:57 | 34.15226 | -118.04533 | 21039 ft | 460 kts | 52° |
| 2026-04-26 14:57 | 34.17036 | -118.01320 | 21370 ft | 465 kts | 52° |
| 2026-04-26 14:57 | 34.18863 | -117.98075 | 21697 ft | 470 kts | 52° |
| 2026-04-26 14:58 | 34.20708 | -117.94789 | 22042 ft | 474 kts | 52° |
| 2026-04-26 14:58 | 34.22566 | -117.91478 | 22410 ft | 477 kts | 52° |
| 2026-04-26 14:58 | 34.24433 | -117.88150 | 22798 ft | 480 kts | 52° |
| 2026-04-26 14:58 | 34.26318 | -117.84785 | 23182 ft | 483 kts | 52° |
| 2026-04-26 14:59 | 34.28210 | -117.81408 | 23564 ft | 487 kts | 52° |
| 2026-04-26 14:59 | 34.30111 | -117.78011 | 23931 ft | 490 kts | 52° |
| 2026-04-26 14:59 | 34.32031 | -117.74579 | 24289 ft | 494 kts | 52° |
| 2026-04-26 14:59 | 34.33304 | -117.72300 | 24538 ft | 496 kts | 53° |
| 2026-04-26 15:00 | 34.35917 | -117.67717 | 25033 ft | 499 kts | 51° |
| 2026-04-26 15:00 | 34.37946 | -117.64306 | 25542 ft | 497 kts | 51° |
| 2026-04-26 15:00 | 34.39970 | -117.60927 | 26007 ft | 497 kts | 51° |
| 2026-04-26 15:00 | 34.42008 | -117.57534 | 26368 ft | 499 kts | 51° |
| 2026-04-26 15:01 | 34.44048 | -117.54123 | 26732 ft | 500 kts | 51° |
| 2026-04-26 15:01 | 34.46093 | -117.50688 | 27054 ft | 503 kts | 51° |
| 2026-04-26 15:01 | 34.48145 | -117.47233 | 27370 ft | 506 kts | 51° |
| 2026-04-26 15:01 | 34.50205 | -117.43762 | 27674 ft | 508 kts | 51° |
| 2026-04-26 15:02 | 34.52245 | -117.40327 | 27983 ft | 510 kts | 51° |
| 2026-04-26 15:02 | 34.54323 | -117.36829 | 28289 ft | 512 kts | 51° |
| 2026-04-26 15:02 | 34.56412 | -117.33310 | 28597 ft | 515 kts | 51° |
| 2026-04-26 15:02 | 34.58510 | -117.29769 | 29083 ft | 515 kts | 51° |
| 2026-04-26 15:03 | 34.60593 | -117.26242 | 29391 ft | 513 kts | 51° |
| 2026-04-26 15:03 | 34.62691 | -117.22690 | 29570 ft | 522 kts | 51° |
| 2026-04-26 15:03 | 34.64817 | -117.19093 | 29947 ft | 524 kts | 52° |
| 2026-04-26 15:03 | 34.66948 | -117.15483 | 30137 ft | 529 kts | 52° |
| 2026-04-26 15:04 | 34.69098 | -117.11834 | 30472 ft | 530 kts | 52° |
| 2026-04-26 15:04 | 34.71226 | -117.08214 | 30991 ft | 524 kts | 52° |
| 2026-04-26 15:04 | 34.73350 | -117.04601 | 31299 ft | 527 kts | 52° |
| 2026-04-26 15:04 | 34.75477 | -117.00982 | 31787 ft | 524 kts | 52° |
| 2026-04-26 15:05 | 34.77592 | -116.97381 | 32162 ft | 523 kts | 52° |
| 2026-04-26 15:05 | 34.78993 | -116.94993 | 32394 ft | 525 kts | 52° |
| 2026-04-26 15:05 | 34.81813 | -116.90180 | 32953 ft | 520 kts | 52° |
| 2026-04-26 15:05 | 34.83893 | -116.86621 | 33186 ft | 525 kts | 52° |
| 2026-04-26 15:06 | 34.86000 | -116.83016 | 33696 ft | 519 kts | 52° |
| 2026-04-26 15:06 | 34.88087 | -116.79440 | 34072 ft | 517 kts | 53° |
| 2026-04-26 15:06 | 34.90183 | -116.75847 | 34331 ft | 522 kts | 53° |
| 2026-04-26 15:06 | 34.92344 | -116.72322 | 34729 ft | 517 kts | 47° |
| 2026-04-26 15:07 | 34.97161 | -116.65842 | 34891 ft | 513 kts | 44° |
| 2026-04-26 15:07 | 35.02044 | -116.59572 | 34893 ft | 512 kts | 44° |
| 2026-04-26 15:08 | 35.06912 | -116.53151 | 34893 ft | 512 kts | 45° |
| 2026-04-26 15:08 | 35.11712 | -116.46733 | 34892 ft | 511 kts | 45° |
| 2026-04-26 15:09 | 35.16535 | -116.40370 | 34873 ft | 509 kts | 44° |
| 2026-04-26 15:09 | 35.21315 | -116.34045 | 34831 ft | 505 kts | 45° |
| 2026-04-26 15:10 | 35.25273 | -116.28770 | 34828 ft | 507 kts | 45° |
| 2026-04-26 15:10 | 35.30882 | -116.21303 | 34835 ft | 516 kts | 45° |
| 2026-04-26 15:11 | 35.35757 | -116.14796 | 34886 ft | 519 kts | 45° |
| 2026-04-26 15:11 | 35.40592 | -116.08326 | 34884 ft | 514 kts | 45° |
| 2026-04-26 15:12 | 35.45416 | -116.01873 | 34875 ft | 512 kts | 45° |
| 2026-04-26 15:12 | 35.50226 | -115.95414 | 34870 ft | 514 kts | 45° |
| 2026-04-26 15:13 | 35.55054 | -115.88923 | 34855 ft | 515 kts | 45° |
| 2026-04-26 15:13 | 35.59893 | -115.82406 | 34864 ft | 518 kts | 45° |
| 2026-04-26 15:14 | 35.64717 | -115.75888 | 34830 ft | 517 kts | 45° |
| 2026-04-26 15:14 | 35.69487 | -115.69325 | 34818 ft | 511 kts | 46° |
| 2026-04-26 15:15 | 35.74193 | -115.62807 | 34776 ft | 506 kts | 45° |
| 2026-04-26 15:15 | 35.78913 | -115.56325 | 34795 ft | 515 kts | 45° |
| 2026-04-26 15:16 | 35.83669 | -115.49762 | 34787 ft | 516 kts | 46° |
| 2026-04-26 15:16 | 35.88437 | -115.43140 | 34787 ft | 516 kts | 46° |
| 2026-04-26 15:17 | 35.92435 | -115.37600 | 34780 ft | 514 kts | 46° |
| 2026-04-26 15:17 | 35.97960 | -115.29934 | 34781 ft | 514 kts | 46° |
| 2026-04-26 15:18 | 36.02707 | -115.23317 | 34813 ft | 516 kts | 46° |
| 2026-04-26 15:18 | 36.07485 | -115.16682 | 34813 ft | 513 kts | 44° |
| 2026-04-26 15:19 | 36.12656 | -115.10844 | 34801 ft | 501 kts | 37° |
| 2026-04-26 15:19 | 36.17927 | -115.05271 | 34776 ft | 497 kts | 37° |
| 2026-04-26 15:20 | 36.23150 | -114.99671 | 34757 ft | 496 kts | 38° |
| 2026-04-26 15:20 | 36.28416 | -114.93935 | 34760 ft | 510 kts | 38° |
| 2026-04-26 15:21 | 36.33764 | -114.88145 | 34750 ft | 509 kts | 38° |
| 2026-04-26 15:21 | 36.39073 | -114.82402 | 34750 ft | 509 kts | 38° |
| 2026-04-26 15:22 | 36.44435 | -114.76568 | 34750 ft | 509 kts | 38° |
| 2026-04-26 15:22 | 36.49737 | -114.70797 | 34775 ft | 512 kts | 38° |
| 2026-04-26 15:23 | 36.55109 | -114.64948 | 34791 ft | 513 kts | 38° |
| 2026-04-26 15:23 | 36.60460 | -114.59102 | 34787 ft | 510 kts | 38° |
| 2026-04-26 15:24 | 36.65760 | -114.53298 | 34781 ft | 505 kts | 38° |
| 2026-04-26 15:24 | 36.71034 | -114.47608 | 34731 ft | 498 kts | 33° |
| 2026-04-26 15:25 | 36.75791 | -114.43661 | 34735 ft | 493 kts | 28° |
| 2026-04-26 15:25 | 36.82680 | -114.38384 | 34760 ft | 501 kts | 28° |
| 2026-04-26 15:26 | 36.88596 | -114.33752 | 34764 ft | 501 kts | 29° |
| 2026-04-26 15:26 | 36.94431 | -114.29108 | 34767 ft | 500 kts | 29° |
| 2026-04-26 15:27 | 37.00316 | -114.24482 | 34768 ft | 499 kts | 28° |
| 2026-04-26 15:27 | 37.06184 | -114.19861 | 34736 ft | 497 kts | 29° |
| 2026-04-26 15:28 | 37.12031 | -114.15231 | 34718 ft | 499 kts | 30° |
| 2026-04-26 15:28 | 37.17967 | -114.10527 | 34723 ft | 508 kts | 30° |
| 2026-04-26 15:29 | 37.23929 | -114.05786 | 34742 ft | 501 kts | 30° |
| 2026-04-26 15:30 | 37.34710 | -113.97204 | 34766 ft | 501 kts | 30° |
| 2026-04-26 15:30 | 37.41559 | -113.91735 | 34768 ft | 501 kts | 30° |
| 2026-04-26 15:31 | 37.49385 | -113.85469 | 34746 ft | 501 kts | 30° |
| 2026-04-26 15:32 | 37.57192 | -113.79203 | 34715 ft | 496 kts | 30° |
| 2026-04-26 15:32 | 37.64014 | -113.73721 | 34714 ft | 502 kts | 30° |
| 2026-04-26 15:33 | 37.69944 | -113.68943 | 34727 ft | 509 kts | 30° |
| 2026-04-26 15:33 | 37.75922 | -113.64109 | 34770 ft | 507 kts | 30° |
| 2026-04-26 15:34 | 37.81806 | -113.59347 | 34769 ft | 501 kts | 31° |
| 2026-04-26 15:34 | 37.87663 | -113.54603 | 34765 ft | 504 kts | 31° |
| 2026-04-26 15:35 | 37.93506 | -113.49722 | 34754 ft | 503 kts | 37° |
| 2026-04-26 15:35 | 37.98810 | -113.43907 | 34764 ft | 503 kts | 41° |
| 2026-04-26 15:36 | 38.04002 | -113.37877 | 34782 ft | 509 kts | 41° |
| 2026-04-26 15:36 | 38.09261 | -113.31896 | 34778 ft | 510 kts | 41° |
| 2026-04-26 15:37 | 38.14574 | -113.25908 | 34776 ft | 510 kts | 41° |
| 2026-04-26 15:37 | 38.19835 | -113.19880 | 34776 ft | 506 kts | 41° |
| 2026-04-26 15:38 | 38.25060 | -113.13893 | 34779 ft | 504 kts | 41° |
| 2026-04-26 15:38 | 38.30276 | -113.07934 | 34776 ft | 503 kts | 41° |
| 2026-04-26 15:39 | 38.35540 | -113.02149 | 34768 ft | 495 kts | 34° |
| 2026-04-26 15:39 | 38.38441 | -112.99958 | 34767 ft | 488 kts | 23° |
| 2026-04-26 15:39 | 38.40525 | -112.98765 | 34770 ft | 484 kts | 21° |
| 2026-04-26 15:40 | 38.47795 | -112.95069 | 34754 ft | 486 kts | 19° |
| 2026-04-26 15:40 | 38.54135 | -112.91752 | 34743 ft | 494 kts | 20° |
| 2026-04-26 15:41 | 38.60452 | -112.88277 | 34741 ft | 494 kts | 20° |
| 2026-04-26 15:41 | 38.66795 | -112.84886 | 34740 ft | 494 kts | 19° |
| 2026-04-26 15:42 | 38.73141 | -112.81516 | 34718 ft | 491 kts | 19° |
| 2026-04-26 15:42 | 38.79387 | -112.78142 | 34682 ft | 490 kts | 19° |
| 2026-04-26 15:43 | 38.85712 | -112.74728 | 34688 ft | 498 kts | 19° |
| 2026-04-26 15:44 | 38.95409 | -112.69500 | 34725 ft | 508 kts | 19° |
| 2026-04-26 15:44 | 39.05056 | -112.64256 | 34733 ft | 499 kts | 18° |
| 2026-04-26 15:45 | 39.11445 | -112.60799 | 33979 ft | 498 kts | 18° |
| 2026-04-26 15:45 | 39.14651 | -112.59057 | 33295 ft | 500 kts | 18° |
| 2026-04-26 15:46 | 39.21080 | -112.55548 | 32064 ft | 502 kts | 18° |
| 2026-04-26 15:46 | 39.24305 | -112.53786 | 31432 ft | 504 kts | 18° |
| 2026-04-26 15:46 | 39.27544 | -112.52019 | 30831 ft | 503 kts | 18° |
| 2026-04-26 15:46 | 39.29684 | -112.50884 | 30426 ft | 500 kts | 15° |
| 2026-04-26 15:47 | 39.34100 | -112.49211 | 29672 ft | 492 kts | 14° |
| 2026-04-26 15:47 | 39.40666 | -112.47083 | 28694 ft | 482 kts | 13° |
| 2026-04-26 15:47 | 39.43897 | -112.46044 | 28348 ft | 474 kts | 14° |
| 2026-04-26 15:48 | 39.47083 | -112.44996 | 27698 ft | 473 kts | 14° |
| 2026-04-26 15:48 | 39.50270 | -112.43924 | 27055 ft | 472 kts | 14° |
| 2026-04-26 15:48 | 39.53436 | -112.42854 | 26659 ft | 465 kts | 14° |
| 2026-04-26 15:48 | 39.56564 | -112.41804 | 26065 ft | 463 kts | 14° |
| 2026-04-26 15:49 | 39.59681 | -112.40769 | 25492 ft | 461 kts | 13° |
| 2026-04-26 15:49 | 39.62755 | -112.39750 | 25052 ft | 452 kts | 13° |
| 2026-04-26 15:49 | 39.65804 | -112.38738 | 24345 ft | 451 kts | 13° |
| 2026-04-26 15:49 | 39.68838 | -112.37724 | 23728 ft | 448 kts | 13° |
| 2026-04-26 15:50 | 39.71790 | -112.36733 | 23292 ft | 440 kts | 13° |
| 2026-04-26 15:50 | 39.74757 | -112.35737 | 22600 ft | 438 kts | 13° |
| 2026-04-26 15:50 | 39.77699 | -112.34752 | 22063 ft | 433 kts | 13° |
| 2026-04-26 15:50 | 39.80596 | -112.33782 | 21574 ft | 427 kts | 13° |
| 2026-04-26 15:51 | 39.83461 | -112.32824 | 20879 ft | 424 kts | 13° |
| 2026-04-26 15:51 | 39.86295 | -112.31878 | 20186 ft | 418 kts | 12° |
| 2026-04-26 15:51 | 39.89090 | -112.30941 | 19600 ft | 410 kts | 13° |
| 2026-04-26 15:51 | 39.91824 | -112.30020 | 19017 ft | 402 kts | 13° |
| 2026-04-26 15:52 | 39.94503 | -112.29117 | 18509 ft | 395 kts | 13° |
| 2026-04-26 15:52 | 39.97151 | -112.28225 | 18023 ft | 393 kts | 13° |
| 2026-04-26 15:52 | 39.99794 | -112.27335 | 17532 ft | 391 kts | 13° |
| 2026-04-26 15:52 | 40.01534 | -112.26748 | 17264 ft | 388 kts | 13° |
| 2026-04-26 15:53 | 40.04989 | -112.25582 | 17021 ft | 378 kts | 13° |
| 2026-04-26 15:53 | 40.07514 | -112.24727 | 16804 ft | 371 kts | 13° |
| 2026-04-26 15:53 | 40.09998 | -112.23886 | 16520 ft | 367 kts | 13° |
| 2026-04-26 15:53 | 40.12454 | -112.23056 | 16245 ft | 363 kts | 13° |
| 2026-04-26 15:54 | 40.14859 | -112.22240 | 16003 ft | 359 kts | 13° |
| 2026-04-26 15:54 | 40.17272 | -112.21418 | 15750 ft | 356 kts | 13° |
| 2026-04-26 15:54 | 40.19664 | -112.20606 | 15499 ft | 353 kts | 13° |
| 2026-04-26 15:54 | 40.22036 | -112.19801 | 15247 ft | 355 kts | 13° |
| 2026-04-26 15:55 | 40.24455 | -112.18980 | 15009 ft | 363 kts | 13° |
| 2026-04-26 15:55 | 40.26916 | -112.18143 | 14764 ft | 366 kts | 13° |
| 2026-04-26 15:55 | 40.29380 | -112.17304 | 14525 ft | 364 kts | 13° |
| 2026-04-26 15:55 | 40.31819 | -112.16472 | 14380 ft | 359 kts | 14° |
| 2026-04-26 15:56 | 40.34213 | -112.15655 | 14228 ft | 351 kts | 13° |
| 2026-04-26 15:56 | 40.36548 | -112.14861 | 14074 ft | 342 kts | 14° |
| 2026-04-26 15:56 | 40.38791 | -112.14097 | 13931 ft | 334 kts | 13° |
| 2026-04-26 15:56 | 40.41024 | -112.13333 | 13769 ft | 329 kts | 14° |
| 2026-04-26 15:57 | 40.43261 | -112.12568 | 13598 ft | 325 kts | 14° |
| 2026-04-26 15:57 | 40.45409 | -112.11834 | 13413 ft | 321 kts | 14° |
| 2026-04-26 15:57 | 40.47588 | -112.11089 | 13245 ft | 317 kts | 14° |
| 2026-04-26 15:57 | 40.48995 | -112.10607 | 13132 ft | 315 kts | 14° |
| 2026-04-26 15:58 | 40.51793 | -112.09657 | 12906 ft | 310 kts | 13° |
| 2026-04-26 15:58 | 40.53904 | -112.08941 | 12735 ft | 310 kts | 14° |
| 2026-04-26 15:58 | 40.56000 | -112.08331 | 12561 ft | 307 kts | 6° |
| 2026-04-26 15:58 | 40.58134 | -112.08088 | 12394 ft | 308 kts | 1° |
| 2026-04-26 15:59 | 40.60233 | -112.07977 | 12227 ft | 304 kts | 0° |
| 2026-04-26 15:59 | 40.62355 | -112.07890 | 12073 ft | 306 kts | 0° |
| 2026-04-26 15:59 | 40.64512 | -112.07948 | 12004 ft | 316 kts | 354° |
| 2026-04-26 15:59 | 40.66724 | -112.08169 | 11829 ft | 322 kts | 353° |
| 2026-04-26 16:00 | 40.68950 | -112.08438 | 11573 ft | 320 kts | 353° |
| 2026-04-26 16:00 | 40.71155 | -112.08718 | 11362 ft | 316 kts | 353° |
| 2026-04-26 16:00 | 40.73338 | -112.08985 | 11174 ft | 313 kts | 353° |
| 2026-04-26 16:00 | 40.75491 | -112.09236 | 11006 ft | 308 kts | 353° |
| 2026-04-26 16:01 | 40.77587 | -112.09481 | 10983 ft | 296 kts | 353° |
| 2026-04-26 16:01 | 40.79617 | -112.09722 | 10991 ft | 289 kts | 353° |
| 2026-04-26 16:01 | 40.81602 | -112.09947 | 10997 ft | 284 kts | 353° |
| 2026-04-26 16:01 | 40.83564 | -112.10175 | 10999 ft | 282 kts | 353° |
| 2026-04-26 16:02 | 40.85522 | -112.10416 | 11007 ft | 282 kts | 353° |
| 2026-04-26 16:02 | 40.87446 | -112.10645 | 10966 ft | 278 kts | 353° |
| 2026-04-26 16:02 | 40.89372 | -112.10866 | 10670 ft | 279 kts | 353° |
| 2026-04-26 16:02 | 40.90683 | -112.11015 | 10435 ft | 280 kts | 353° |
| 2026-04-26 16:03 | 40.93256 | -112.11307 | 10045 ft | 280 kts | 353° |
| 2026-04-26 16:03 | 40.95200 | -112.11528 | 9877 ft | 282 kts | 354° |
| 2026-04-26 16:03 | 40.97143 | -112.11750 | 9716 ft | 277 kts | 353° |
| 2026-04-26 16:03 | 40.99047 | -112.11965 | 9472 ft | 272 kts | 353° |
| 2026-04-26 16:04 | 41.00915 | -112.12174 | 9199 ft | 267 kts | 354° |
| 2026-04-26 16:04 | 41.02765 | -112.12383 | 8849 ft | 267 kts | 354° |
| 2026-04-26 16:04 | 41.04612 | -112.12586 | 8509 ft | 265 kts | 359° |
| 2026-04-26 16:04 | 41.06411 | -112.12163 | 8115 ft | 263 kts | 27° |
| 2026-04-26 16:05 | 41.07843 | -112.10752 | 7840 ft | 254 kts | 55° |
| 2026-04-26 16:05 | 41.08595 | -112.08713 | 7597 ft | 242 kts | 83° |
| 2026-04-26 16:05 | 41.08514 | -112.06601 | 7476 ft | 228 kts | 115° |
| 2026-04-26 16:05 | 41.07583 | -112.04991 | 7484 ft | 219 kts | 144° |
| 2026-04-26 16:06 | 41.06392 | -112.03760 | 7503 ft | 217 kts | 143° |
| 2026-04-26 16:06 | 41.05073 | -112.02844 | 7486 ft | 214 kts | 167° |
| 2026-04-26 16:06 | 41.03598 | -112.02563 | 7500 ft | 215 kts | 174° |
| 2026-04-26 16:06 | 41.02103 | -112.02396 | 7505 ft | 215 kts | 175° |
| 2026-04-26 16:07 | 41.00624 | -112.02247 | 7522 ft | 207 kts | 174° |
| 2026-04-26 16:07 | 40.99247 | -112.02089 | 7494 ft | 190 kts | 173° |
| 2026-04-26 16:07 | 40.97968 | -112.01931 | 7458 ft | 181 kts | 174° |
| 2026-04-26 16:07 | 40.96740 | -112.01786 | 7297 ft | 175 kts | 174° |
| 2026-04-26 16:08 | 40.95526 | -112.01647 | 7095 ft | 175 kts | 174° |
| 2026-04-26 16:08 | 40.94723 | -112.01554 | 6950 ft | 175 kts | 174° |
| 2026-04-26 16:08 | 40.93092 | -112.01362 | 6645 ft | 176 kts | 174° |
| 2026-04-26 16:08 | 40.91900 | -112.01225 | 6415 ft | 172 kts | 173° |
| 2026-04-26 16:09 | 40.90719 | -112.01087 | 6190 ft | 168 kts | 173° |
| 2026-04-26 16:09 | 40.89546 | -112.00951 | 5969 ft | 172 kts | 174° |
| 2026-04-26 16:09 | 40.88381 | -112.00813 | 5741 ft | 163 kts | 174° |
| 2026-04-26 16:09 | 40.87283 | -112.00687 | 5527 ft | 154 kts | 174° |
| 2026-04-26 16:10 | 40.86231 | -112.00564 | 5329 ft | 151 kts | 174° |
| 2026-04-26 16:10 | 40.85185 | -112.00441 | 5129 ft | 150 kts | 174° |
| 2026-04-26 16:10 | 40.84158 | -112.00321 | 4931 ft | 147 kts | 173° |
| 2026-04-26 16:10 | 40.83147 | -112.00205 | 4738 ft | 143 kts | 173° |
| 2026-04-26 16:11 | 40.82162 | -112.00091 | 4548 ft | 141 kts | 174° |
| 2026-04-26 16:11 | 40.81188 | -111.99977 | 4361 ft | 141 kts | 174° |
| 2026-04-26 16:11 | 40.80242 | -111.99870 | 4247 ft | 131 kts | 171° |
| 2026-04-26 16:11 | 40.79444 | -111.99775 | 4241 ft | 92 kts | 171° |
| 2026-04-26 16:12 | 40.78987 | -111.99719 | 4241 ft | 40 kts | 174° |
| 2026-04-26 16:12 | 40.78837 | -111.99696 | 4241 ft | 14 kts | 163° |
| 2026-04-26 16:12 | 40.78723 | -111.99540 | 4241 ft | 9 kts | 118° |
| 2026-04-26 16:13 | 40.78702 | -111.99461 | 4241 ft | 10 kts | 106° |
| 2026-04-26 16:13 | 40.78703 | -111.99385 | 4241 ft | 9 kts | 79° |
| 2026-04-26 16:13 | 40.78713 | -111.99293 | 4241 ft | 10 kts | 83° |
| 2026-04-26 16:13 | 40.78749 | -111.99246 | 4241 ft | 9 kts | 12° |
| 2026-04-26 16:14 | 40.78763 | -111.99183 | 4241 ft | 9 kts | 93° |
| 2026-04-26 16:14 | 40.78771 | -111.99087 | 4241 ft | 12 kts | 82° |
| 2026-04-26 16:14 | 40.78811 | -111.98915 | 4241 ft | 8 kts | 360° |
| 2026-04-26 16:15 | 40.78875 | -111.98921 | 4241 ft | 10 kts | 354° |
| 2026-04-26 16:15 | 40.78950 | -111.98930 | 4241 ft | 12 kts | 355° |
| 2026-04-26 16:15 | 40.79035 | -111.98941 | 4241 ft | 11 kts | 353° |
| 2026-04-26 16:16 | 40.79125 | -111.98897 | 4241 ft | 9 kts | 82° |
| 2026-04-26 16:16 | 40.79131 | -111.98809 | 4241 ft | 10 kts | 86° |
| 2026-04-26 16:16 | 40.79135 | -111.98742 | 4241 ft | 12 kts | 84° |
| 2026-04-26 16:16 | 40.79143 | -111.98628 | 4241 ft | 13 kts | 85° |
| 2026-04-26 16:17 | 40.79150 | -111.98515 | 4241 ft | 10 kts | 85° |
| 2026-04-26 16:17 | 40.79127 | -111.98452 | 4241 ft | 9 kts | 165° |
| 2026-04-26 16:17 | 40.79068 | -111.98444 | 4241 ft | 9 kts | 175° |
| 2026-04-26 16:17 | 40.78998 | -111.98425 | 4241 ft | 8 kts | 140° |
| 2026-04-26 16:18 | 40.78976 | -111.98386 | 4241 ft | 8 kts | 111° |
| 2026-04-26 16:18 | 40.78949 | -111.98254 | 4241 ft | 7 kts | 139° |
| 2026-04-26 16:19 | 40.78887 | -111.98185 | 4241 ft | 3 kts | 139° |
| 2026-04-26 16:19 | 40.78884 | -111.98181 | 4241 ft | 0 kts | 139° |